createdAt,value
2022-11-28T00:01:20.855Z,7.30
2022-11-28T00:03:47.950Z,7.50
2022-11-28T00:06:15.165Z,6.13
2022-11-28T00:08:41.912Z,7.13
2022-11-28T00:11:11.306Z,7.53
2022-11-28T00:13:38.843Z,6.83
2022-11-28T00:16:08.261Z,7.93
2022-11-28T00:18:35.496Z,6.93
2022-11-28T00:21:06.150Z,7.50
2022-11-28T00:23:33.519Z,8.00
2022-11-28T00:26:08.991Z,7.80
2022-11-28T00:28:35.815Z,7.60
2022-11-28T00:31:02.430Z,7.17
2022-11-28T00:33:29.365Z,7.63
2022-11-28T00:36:05.043Z,6.73
2022-11-28T00:38:32.041Z,7.07
2022-11-28T00:41:03.485Z,6.57
2022-11-28T00:43:30.133Z,6.37
2022-11-28T00:45:57.145Z,6.17
2022-11-28T00:48:24.881Z,7.33
2022-11-28T00:50:52.247Z,10.77
2022-11-28T00:53:19.107Z,7.07
2022-11-28T00:55:45.787Z,6.60
2022-11-28T00:58:12.364Z,6.73
2022-11-28T01:00:39.524Z,6.40
2022-11-28T01:03:06.525Z,7.27
2022-11-28T01:05:33.309Z,6.60
2022-11-28T01:07:59.936Z,6.80
2022-11-28T01:10:27.264Z,8.30
2022-11-28T01:12:53.967Z,6.30
2022-11-28T01:15:20.790Z,9.10
2022-11-28T01:17:47.441Z,7.10
2022-11-28T01:20:14.575Z,7.17
2022-11-28T01:22:41.162Z,6.23
2022-11-28T01:25:07.972Z,7.13
2022-11-28T01:27:34.575Z,7.73
2022-11-28T01:30:01.156Z,7.13
2022-11-28T01:32:27.751Z,9.73
2022-11-28T01:34:54.375Z,6.63
2022-11-28T01:37:20.964Z,6.77
2022-11-28T01:39:47.605Z,7.77
2022-11-28T01:42:18.774Z,9.33
2022-11-28T01:44:48.174Z,8.87
2022-11-28T01:47:27.955Z,8.07
2022-11-28T01:49:55.723Z,8.57
2022-11-28T01:52:23.632Z,8.93
2022-11-28T01:54:55.178Z,8.50
2022-11-28T01:57:25.137Z,7.77
2022-11-28T01:59:59.462Z,8.73
2022-11-28T02:02:46.291Z,9.00
2022-11-28T02:05:13.516Z,8.87
2022-11-28T02:07:43.460Z,9.50
2022-11-28T02:10:15.045Z,10.47
2022-11-28T02:13:03.738Z,9.83
2022-11-28T02:15:33.818Z,9.33
2022-11-28T02:18:12.252Z,10.10
2022-11-28T02:20:57.364Z,8.80
2022-11-28T02:23:51.398Z,10.20
2022-11-28T02:26:36.854Z,9.00
2022-11-28T02:29:31.985Z,9.37
2022-11-28T02:32:25.206Z,9.50
2022-11-28T02:35:10.197Z,10.20
2022-11-28T02:38:02.542Z,9.93
2022-11-28T02:40:39.927Z,10.43
2022-11-28T02:43:28.240Z,9.57
2022-11-28T02:46:52.110Z,8.73
2022-11-28T02:49:26.838Z,9.90
2022-11-28T02:51:58.746Z,9.00
2022-11-28T02:54:27.339Z,10.30
2022-11-28T02:56:55.200Z,10.03
2022-11-28T02:59:49.647Z,10.60
2022-11-28T03:02:24.137Z,10.27
2022-11-28T03:05:18.108Z,8.23
2022-11-28T03:07:53.366Z,8.90
2022-11-28T03:10:33.844Z,9.13
2022-11-28T03:13:13.918Z,8.07
2022-11-28T03:16:09.077Z,8.10
2022-11-28T03:18:42.207Z,8.73
2022-11-28T03:21:23.502Z,8.47
2022-11-28T03:24:01.312Z,12.10
2022-11-28T03:26:41.646Z,8.70
2022-11-28T03:29:41.640Z,9.80
2022-11-28T03:32:11.988Z,8.97
2022-11-28T03:34:44.631Z,8.47
2022-11-28T03:37:16.859Z,11.07
2022-11-28T03:39:49.055Z,9.37
2022-11-28T03:42:40.099Z,8.33
2022-11-28T03:45:13.830Z,9.70
2022-11-28T03:47:52.290Z,9.53
2022-11-28T03:50:25.772Z,9.27
2022-11-28T03:53:03.412Z,9.37
2022-11-28T03:55:43.648Z,8.70
2022-11-28T03:58:23.152Z,8.70
2022-11-28T04:01:02.342Z,7.87
2022-11-28T04:03:40.930Z,9.60
2022-11-28T04:06:24.456Z,8.70
2022-11-28T04:09:49.517Z,9.53
2022-11-28T04:12:21.274Z,7.70
2022-11-28T04:14:55.739Z,7.63
2022-11-28T04:17:42.542Z,7.93
2022-11-28T04:20:21.139Z,7.33
2022-11-28T04:22:54.186Z,9.07
2022-11-28T04:25:23.184Z,7.43
2022-11-28T04:28:07.097Z,8.70
2022-11-28T04:30:34.748Z,7.17
2022-11-28T04:33:07.077Z,6.70
2022-11-28T04:35:38.220Z,6.40
2022-11-28T04:38:07.458Z,8.37
2022-11-28T04:40:57.685Z,5.93
2022-11-28T04:43:29.958Z,6.60
2022-11-28T04:46:02.478Z,8.10
2022-11-28T04:48:34.131Z,6.07
2022-11-28T04:51:25.799Z,7.67
2022-11-28T04:54:15.899Z,4.97
2022-11-28T04:56:48.476Z,7.60
2022-11-28T04:59:15.820Z,8.30
2022-11-28T05:01:46.224Z,6.63
2022-11-28T05:04:14.685Z,7.63
2022-11-28T05:06:41.283Z,7.07
2022-11-28T05:09:10.078Z,10.17
2022-11-28T05:11:36.701Z,6.93
2022-11-28T05:14:03.370Z,7.43
2022-11-28T05:16:30.093Z,7.50
2022-11-28T05:18:56.777Z,7.67
2022-11-28T05:21:23.467Z,6.47
2022-11-28T05:23:50.092Z,6.37
2022-11-28T05:26:20.277Z,7.07
2022-11-28T05:28:50.068Z,7.07
2022-11-28T05:31:18.908Z,6.47
2022-11-28T05:33:45.997Z,6.57
2022-11-28T05:36:13.880Z,6.73
2022-11-28T05:38:41.461Z,8.10
2022-11-28T05:41:09.189Z,8.97
2022-11-28T05:43:35.865Z,9.00
2022-11-28T05:46:06.542Z,8.73
2022-11-28T05:48:33.225Z,7.97
2022-11-28T05:51:00.638Z,7.50
2022-11-28T05:53:27.277Z,6.70
2022-11-28T05:55:53.869Z,9.17
2022-11-28T05:58:20.477Z,6.77
2022-11-28T06:00:47.121Z,6.70
2022-11-28T06:03:13.739Z,8.77
2022-11-28T06:05:43.679Z,8.30
2022-11-28T06:08:12.075Z,6.87
2022-11-28T06:10:39.023Z,7.47
2022-11-28T06:13:05.767Z,7.20
2022-11-28T06:15:37.533Z,8.60
2022-11-28T06:18:05.283Z,6.63
2022-11-28T06:20:31.902Z,7.50
2022-11-28T06:22:58.600Z,7.63
2022-11-28T06:25:25.171Z,7.40
2022-11-28T06:27:51.811Z,8.23
2022-11-28T06:30:18.419Z,9.37
2022-11-28T06:32:45.057Z,7.07
2022-11-28T06:35:11.702Z,7.37
2022-11-28T06:37:38.338Z,9.20
2022-11-28T06:40:05.807Z,7.43
2022-11-28T06:42:32.457Z,5.80
2022-11-28T06:44:59.026Z,8.27
2022-11-28T06:47:25.681Z,6.53
2022-11-28T06:49:52.761Z,8.57
2022-11-28T06:52:19.345Z,7.70
2022-11-28T06:54:45.935Z,7.17
2022-11-28T06:57:12.684Z,6.43
2022-11-28T06:59:39.360Z,9.73
2022-11-28T07:02:07.925Z,7.23
2022-11-28T07:04:34.805Z,7.90
2022-11-28T07:07:01.637Z,8.00
2022-11-28T07:09:28.396Z,7.90
2022-11-28T07:11:55.179Z,7.53
2022-11-28T07:14:21.797Z,7.17
2022-11-28T07:16:49.256Z,8.63
2022-11-28T07:19:16.183Z,9.53
2022-11-28T07:21:42.847Z,8.30
2022-11-28T07:24:09.444Z,6.80
2022-11-28T07:26:38.073Z,6.87
2022-11-28T07:29:07.000Z,11.70
2022-11-28T07:31:33.849Z,7.17
2022-11-28T07:34:03.530Z,8.07
2022-11-28T07:36:30.832Z,9.90
2022-11-28T07:38:59.831Z,13.40
2022-11-28T07:41:27.401Z,26.53
2022-11-28T07:43:57.147Z,17.77
2022-11-28T07:46:24.917Z,24.40
2022-11-28T07:48:52.293Z,22.60
2022-11-28T07:51:21.703Z,9.53
2022-11-28T07:53:48.490Z,8.63
2022-11-28T07:56:18.691Z,9.80
2022-11-28T07:58:47.236Z,10.87
2022-11-28T08:01:19.124Z,10.40
2022-11-28T08:03:46.866Z,9.10
2022-11-28T08:06:16.631Z,9.83
2022-11-28T08:08:43.929Z,7.90
2022-11-28T08:11:10.885Z,11.53
2022-11-28T08:13:38.764Z,9.40
2022-11-28T08:16:08.157Z,7.83
2022-11-28T08:18:36.069Z,8.07
2022-11-28T08:21:05.050Z,10.33
2022-11-28T08:23:33.738Z,10.20
2022-11-28T08:26:03.808Z,8.50
2022-11-28T08:28:31.504Z,8.97
2022-11-28T08:31:01.382Z,7.90
2022-11-28T08:33:28.067Z,9.20
2022-11-28T08:35:54.670Z,10.00
2022-11-28T08:38:21.308Z,15.37
2022-11-28T08:40:47.890Z,9.00
2022-11-28T08:43:14.644Z,13.30
2022-11-28T08:45:41.474Z,6.73
2022-11-28T08:48:08.105Z,7.93
2022-11-28T08:50:34.686Z,11.70
2022-11-28T08:53:07.830Z,8.90
2022-11-28T08:55:39.162Z,9.07
2022-11-28T08:58:08.506Z,7.13
2022-11-28T09:00:35.411Z,8.07
2022-11-28T09:03:02.304Z,7.07
2022-11-28T09:05:29.895Z,9.37
2022-11-28T09:07:56.859Z,6.70
2022-11-28T09:10:25.052Z,8.20
2022-11-28T09:12:52.511Z,8.90
2022-11-28T09:15:19.205Z,9.70
2022-11-28T09:17:46.576Z,12.70
2022-11-28T09:20:13.651Z,7.80
2022-11-28T09:22:42.540Z,11.17
2022-11-28T09:25:09.337Z,7.13
2022-11-28T09:27:35.906Z,7.90
2022-11-28T09:30:02.589Z,7.63
2022-11-28T09:32:29.173Z,8.60
2022-11-28T09:34:55.777Z,8.53
2022-11-28T09:37:22.374Z,11.83
2022-11-28T09:40:11.668Z,10.30
2022-11-28T09:42:39.393Z,8.37
2022-11-28T09:45:11.960Z,9.13
2022-11-28T09:47:42.884Z,9.37
2022-11-28T09:50:16.786Z,8.37
2022-11-28T09:52:49.705Z,8.80
2022-11-28T09:55:28.225Z,10.03
2022-11-28T09:57:55.392Z,8.90
2022-11-28T10:00:55.361Z,10.70
2022-11-28T10:03:43.771Z,9.73
2022-11-28T10:06:19.196Z,8.30
2022-11-28T10:09:16.648Z,8.03
2022-11-28T10:12:04.850Z,7.97
2022-11-28T10:14:51.376Z,7.30
2022-11-28T10:17:50.462Z,7.43
2022-11-28T10:20:28.352Z,10.13
2022-11-28T10:23:18.062Z,7.60
2022-11-28T10:25:53.820Z,10.53
2022-11-28T10:28:26.557Z,9.77
2022-11-28T10:31:01.652Z,10.70
2022-11-28T10:33:52.064Z,10.50
2022-11-28T10:36:26.522Z,10.37
2022-11-28T10:38:53.478Z,9.23
2022-11-28T10:41:28.831Z,10.50
2022-11-28T10:44:00.738Z,10.90
2022-11-28T10:46:49.414Z,9.90
2022-11-28T10:49:37.154Z,11.20
2022-11-28T10:52:04.097Z,12.10
2022-11-28T10:54:49.649Z,11.07
2022-11-28T10:57:31.481Z,9.83
2022-11-28T11:00:14.525Z,9.87
2022-11-28T11:03:00.411Z,11.57
2022-11-28T11:05:32.960Z,10.43
2022-11-28T11:08:10.089Z,12.90
2022-11-28T11:10:41.359Z,10.67
2022-11-28T11:13:19.206Z,11.60
2022-11-28T11:15:49.195Z,10.07
2022-11-28T11:18:42.158Z,14.40
2022-11-28T11:21:15.358Z,10.63
2022-11-28T11:23:43.095Z,10.07
2022-11-28T11:26:25.011Z,10.67
2022-11-28T11:28:52.506Z,10.87
2022-11-28T11:31:24.128Z,11.80
2022-11-28T11:33:53.873Z,10.57
2022-11-28T11:36:25.487Z,10.70
2022-11-28T11:38:52.685Z,9.57
2022-11-28T11:41:28.016Z,11.70
2022-11-28T11:43:54.827Z,11.43
2022-11-28T11:46:21.538Z,12.40
2022-11-28T11:48:51.223Z,10.93
2022-11-28T11:51:35.230Z,12.83
2022-11-28T11:54:19.239Z,10.83
2022-11-28T11:56:53.557Z,11.20
2022-11-28T11:59:26.326Z,13.43
2022-11-28T12:01:57.615Z,11.10
2022-11-28T12:04:45.648Z,11.70
2022-11-28T12:07:28.124Z,10.93
2022-11-28T12:09:59.502Z,12.17
2022-11-28T12:12:33.710Z,9.43
2022-11-28T12:15:00.299Z,10.50
2022-11-28T12:17:50.706Z,11.77
2022-11-28T12:20:43.165Z,11.67
2022-11-28T12:23:40.667Z,12.07
2022-11-28T12:26:28.826Z,13.60
2022-11-28T12:29:53.436Z,8.87
2022-11-28T12:32:32.065Z,10.37
2022-11-28T12:35:15.969Z,11.90
2022-11-28T12:38:10.168Z,11.37
2022-11-28T12:41:14.537Z,10.13
2022-11-28T12:43:42.717Z,9.67
2022-11-28T12:46:38.029Z,7.53
2022-11-28T12:49:10.807Z,8.90
2022-11-28T12:51:55.358Z,9.70
2022-11-28T12:54:24.612Z,11.40
2022-11-28T12:57:07.653Z,12.80
2022-11-28T13:00:08.625Z,9.90
2022-11-28T13:02:42.689Z,11.03
2022-11-28T13:05:50.623Z,8.23
2022-11-28T13:08:47.887Z,12.80
2022-11-28T13:11:40.169Z,11.27
2022-11-28T13:14:15.613Z,13.27
2022-11-28T13:16:51.484Z,20.67
2022-11-28T13:19:38.091Z,9.97
2022-11-28T13:22:34.078Z,7.70
2022-11-28T13:25:29.468Z,9.00
2022-11-28T13:28:10.670Z,9.20
2022-11-28T13:30:47.984Z,9.53
2022-11-28T13:33:14.615Z,11.90
2022-11-28T13:35:44.016Z,10.03
2022-11-28T13:38:36.729Z,12.00
2022-11-28T13:41:35.820Z,14.33
2022-11-28T13:44:22.020Z,11.50
2022-11-28T13:46:48.768Z,13.97
2022-11-28T13:49:24.387Z,13.63
2022-11-28T13:52:18.708Z,7.43
2022-11-28T13:54:52.952Z,9.67
2022-11-28T13:57:26.937Z,9.97
2022-11-28T14:00:02.295Z,10.73
2022-11-28T14:02:51.222Z,24.60
2022-11-28T14:05:28.847Z,21.00
2022-11-28T14:07:56.899Z,11.87
2022-11-28T14:10:40.602Z,21.37
2022-11-28T14:13:24.088Z,12.17
2022-11-28T14:16:13.679Z,7.97
2022-11-28T14:18:57.260Z,7.17
2022-11-28T14:21:39.575Z,10.43
2022-11-28T14:24:27.291Z,8.67
2022-11-28T14:27:00.350Z,9.97
2022-11-28T14:29:49.824Z,12.37
2022-11-28T14:32:40.528Z,11.97
2022-11-28T14:35:17.658Z,9.10
2022-11-28T14:37:53.660Z,9.37
2022-11-28T14:40:51.278Z,11.20
2022-11-28T14:43:23.835Z,11.70
2022-11-28T14:45:52.164Z,11.53
2022-11-28T14:48:31.190Z,10.50
2022-11-28T14:51:01.932Z,14.47
2022-11-28T14:53:42.389Z,13.83
2022-11-28T14:56:15.786Z,13.47
2022-11-28T14:59:03.468Z,15.53
2022-11-28T15:01:41.040Z,18.33
2022-11-28T15:04:26.816Z,15.20
2022-11-28T15:06:54.977Z,12.93
2022-11-28T15:10:07.946Z,11.87
2022-11-28T15:12:54.838Z,11.53
2022-11-28T15:15:22.729Z,12.63
2022-11-28T15:17:53.136Z,10.80
2022-11-28T15:20:35.478Z,13.80
2022-11-28T15:23:02.304Z,11.40
2022-11-28T15:25:35.655Z,13.33
2022-11-28T15:28:16.699Z,13.73
2022-11-28T15:30:51.502Z,14.07
2022-11-28T15:33:19.721Z,15.90
2022-11-28T15:36:10.883Z,14.00
2022-11-28T15:38:41.347Z,15.03
2022-11-28T15:41:08.163Z,13.93
2022-11-28T15:43:37.593Z,12.77
2022-11-28T15:46:05.949Z,13.20
2022-11-28T15:48:39.423Z,11.37
2022-11-28T15:51:08.095Z,11.00
2022-11-28T15:53:40.492Z,11.53
2022-11-28T15:56:12.686Z,11.97
2022-11-28T15:58:39.705Z,12.73
2022-11-28T16:01:40.607Z,12.90
2022-11-28T16:04:13.441Z,14.03
2022-11-28T16:06:44.474Z,14.13
2022-11-28T16:09:19.979Z,13.40
2022-11-28T16:11:49.705Z,13.47
2022-11-28T16:14:25.556Z,13.33
2022-11-28T16:16:52.182Z,14.17
2022-11-28T16:19:26.621Z,13.27
2022-11-28T16:21:57.777Z,13.83
2022-11-28T16:24:31.138Z,13.23
2022-11-28T16:27:03.478Z,13.67
2022-11-28T16:29:35.988Z,13.63
2022-11-28T16:32:19.602Z,15.17
2022-11-28T16:34:49.484Z,14.90
2022-11-28T16:37:27.619Z,15.00
2022-11-28T16:40:13.282Z,16.60
2022-11-28T16:42:40.414Z,19.37
2022-11-28T16:45:10.299Z,18.40
2022-11-28T16:47:37.233Z,16.83
2022-11-28T16:50:15.360Z,17.50
2022-11-28T16:52:46.467Z,18.07
2022-11-28T16:55:39.574Z,19.03
2022-11-28T16:58:18.790Z,21.30
2022-11-28T17:00:51.753Z,20.07
2022-11-28T17:03:41.495Z,18.47
2022-11-28T17:06:21.107Z,19.67
2022-11-28T17:08:48.454Z,17.70
2022-11-28T17:11:18.141Z,20.50
2022-11-28T17:13:44.760Z,22.37
2022-11-28T17:16:17.188Z,23.83
2022-11-28T17:18:45.154Z,23.30
2022-11-28T17:21:12.857Z,25.17
2022-11-28T17:23:41.095Z,23.57
2022-11-28T17:26:08.671Z,19.40
2022-11-28T17:28:35.719Z,19.60
2022-11-28T17:31:02.518Z,21.27
2022-11-28T17:33:29.192Z,18.97
2022-11-28T17:35:57.861Z,21.93
2022-11-28T17:38:24.798Z,22.17
2022-11-28T17:40:51.376Z,23.47
2022-11-28T17:43:20.471Z,24.33
2022-11-28T17:45:50.623Z,23.73
2022-11-28T17:48:18.041Z,21.43
2022-11-28T17:50:48.185Z,20.60
2022-11-28T17:53:18.245Z,20.03
2022-11-28T17:55:46.999Z,23.03
2022-11-28T17:58:23.601Z,22.27
2022-11-28T18:00:51.766Z,21.67
2022-11-28T18:03:20.848Z,20.63
2022-11-28T18:05:49.497Z,23.17
2022-11-28T18:08:21.850Z,22.70
2022-11-28T18:10:49.192Z,24.23
2022-11-28T18:13:17.599Z,23.30
2022-11-28T18:15:47.128Z,23.77
2022-11-28T18:18:14.181Z,24.20
2022-11-28T18:20:41.251Z,27.77
2022-11-28T18:23:11.020Z,26.17
2022-11-28T18:25:42.732Z,24.57
2022-11-28T18:28:18.618Z,22.93
2022-11-28T18:30:47.471Z,23.07
2022-11-28T18:33:15.393Z,24.30
2022-11-28T18:35:42.686Z,22.10
2022-11-28T18:38:11.787Z,22.03
2022-11-28T18:40:39.095Z,21.20
2022-11-28T18:43:05.940Z,23.83
2022-11-28T18:45:33.279Z,24.13
2022-11-28T18:48:00.637Z,26.50
2022-11-28T18:50:28.217Z,25.10
2022-11-28T18:52:54.838Z,25.97
2022-11-28T18:55:21.521Z,26.90
2022-11-28T18:57:48.795Z,30.23
2022-11-28T19:00:16.108Z,29.37
2022-11-28T19:02:42.958Z,31.33
2022-11-28T19:05:10.210Z,31.27
2022-11-28T19:07:37.319Z,29.53
2022-11-28T19:10:04.308Z,27.80
2022-11-28T19:12:30.897Z,24.50
2022-11-28T19:15:02.039Z,24.93
2022-11-28T19:17:29.418Z,23.90
2022-11-28T19:19:56.215Z,23.83
2022-11-28T19:22:22.902Z,25.70
2022-11-28T19:24:49.539Z,26.77
2022-11-28T19:27:16.379Z,24.07
2022-11-28T19:29:43.285Z,26.50
2022-11-28T19:32:10.301Z,24.43
2022-11-28T19:34:37.008Z,21.87
2022-11-28T19:37:03.626Z,25.53
2022-11-28T19:39:30.414Z,26.50
2022-11-28T19:41:57.335Z,25.97
2022-11-28T19:44:24.749Z,25.53
2022-11-28T19:46:53.433Z,26.93
2022-11-28T19:49:23.070Z,22.97
2022-11-28T19:51:51.075Z,23.17
2022-11-28T19:54:21.989Z,26.37
2022-11-28T19:56:49.549Z,23.77
2022-11-28T19:59:16.837Z,24.17
2022-11-28T20:01:43.806Z,23.43
2022-11-28T20:04:10.974Z,26.23
2022-11-28T20:06:38.140Z,24.90
2022-11-28T20:09:08.858Z,25.33
2022-11-28T20:11:40.070Z,25.63
2022-11-28T20:14:12.348Z,23.03
2022-11-28T20:16:40.535Z,20.40
2022-11-28T20:19:10.235Z,18.83
2022-11-28T20:21:37.151Z,17.67
2022-11-28T20:24:07.404Z,23.73
2022-11-28T20:26:40.884Z,21.87
2022-11-28T20:29:11.837Z,20.93
2022-11-28T20:31:46.171Z,20.27
2022-11-28T20:34:17.084Z,19.27
2022-11-28T20:36:44.201Z,20.57
2022-11-28T20:39:12.064Z,20.80
2022-11-28T20:41:38.663Z,19.07
2022-11-28T20:44:05.497Z,18.80
2022-11-28T20:46:34.087Z,21.47
2022-11-28T20:49:04.215Z,18.10
2022-11-28T20:51:34.164Z,19.00
2022-11-28T20:54:02.633Z,14.50
2022-11-28T20:56:31.885Z,18.07
2022-11-28T20:59:00.702Z,19.20
2022-11-28T21:01:30.754Z,18.03
2022-11-28T21:03:57.449Z,18.13
2022-11-28T21:06:24.303Z,16.13
2022-11-28T21:08:51.255Z,17.60
2022-11-28T21:11:43.373Z,17.97
2022-11-28T21:14:07.557Z,16.17
2022-11-28T21:16:34.747Z,18.57
2022-11-28T21:19:05.028Z,17.00
2022-11-28T21:21:34.045Z,17.20
2022-11-28T21:24:03.329Z,15.43
2022-11-28T21:26:39.203Z,15.23
2022-11-28T21:29:09.214Z,16.03
2022-11-28T21:31:40.070Z,16.93
2022-11-28T21:34:06.739Z,16.97
2022-11-28T21:36:33.655Z,16.87
2022-11-28T21:39:01.271Z,16.67
2022-11-28T21:41:31.165Z,14.83
2022-11-28T21:43:58.641Z,14.53
2022-11-28T21:46:26.240Z,15.17
2022-11-28T21:48:53.646Z,14.43
2022-11-28T21:51:22.883Z,15.50
2022-11-28T21:53:49.831Z,13.60
2022-11-28T21:56:17.302Z,13.10
2022-11-28T21:58:44.277Z,13.43
2022-11-28T22:01:13.501Z,13.07
2022-11-28T22:03:41.730Z,13.03
2022-11-28T22:06:12.263Z,13.47
2022-11-28T22:08:38.835Z,13.43
2022-11-28T22:11:08.571Z,17.67
2022-11-28T22:13:35.845Z,16.37
2022-11-28T22:16:10.611Z,23.43
2022-11-28T22:18:37.567Z,30.43
2022-11-28T22:21:28.678Z,21.10
2022-11-28T22:23:53.480Z,97.50
2022-11-28T22:26:20.147Z,129.90
2022-11-28T22:28:53.161Z,119.67
2022-11-28T22:31:20.561Z,79.77
2022-11-28T22:33:49.125Z,45.60
2022-11-28T22:36:18.133Z,114.20
2022-11-28T22:38:46.079Z,150.27
2022-11-28T22:41:28.405Z,158.33
2022-11-28T22:43:59.590Z,165.17
2022-11-28T22:46:27.852Z,117.53
2022-11-28T22:48:54.721Z,149.00
2022-11-28T22:51:23.988Z,154.70
2022-11-28T22:53:55.647Z,198.43
2022-11-28T22:56:24.825Z,145.33
2022-11-28T22:58:51.830Z,118.37
2022-11-28T23:01:22.349Z,78.33
2022-11-28T23:03:49.004Z,191.33
2022-11-28T23:06:24.929Z,213.80
2022-11-28T23:08:55.752Z,184.87
2022-11-28T23:11:26.610Z,139.63
2022-11-28T23:13:53.619Z,142.67
2022-11-28T23:16:26.200Z,87.17
2022-11-28T23:18:56.862Z,45.43
2022-11-28T23:21:25.851Z,28.87
2022-11-28T23:23:53.585Z,52.03
2022-11-28T23:26:28.533Z,97.47
2022-11-28T23:28:55.666Z,64.63
2022-11-28T23:31:25.947Z,120.97
2022-11-28T23:33:54.126Z,129.77
2022-11-28T23:36:26.277Z,97.67
2022-11-28T23:38:56.174Z,233.60
2022-11-28T23:41:23.657Z,141.37
2022-11-28T23:43:50.738Z,107.17
2022-11-28T23:46:18.904Z,147.63
2022-11-28T23:48:46.714Z,138.00
2022-11-28T23:51:14.904Z,123.73
2022-11-28T23:53:42.737Z,100.23
2022-11-28T23:56:14.917Z,251.53
2022-11-28T23:58:42.276Z,247.17
